Time,TemperatureF,DewpointF,PressureIn,WindDirection,WindDirectionDegrees,WindSpeedMPH,WindSpeedGustMPH,Humidity,HourlyPrecipIn,Conditions,Clouds,dailyrainin,SoftwareType,DateUTC
2013-04-02 00:03:00,26.4,17.0,30.11,WNW,284,0.0,0.0,69,0.00,,,0.00,weatherlink.com 1.10,2013-04-02 04:03:00,
2013-04-02 00:18:00,26.3,18.0,30.11,WNW,284,0.0,0.0,70,0.00,,,0.00,weatherlink.com 1.10,2013-04-02 04:18:00,
2013-04-02 00:33:00,25.5,18.0,30.11,WNW,284,0.0,0.0,72,0.00,,,0.00,weatherlink.com 1.10,2013-04-02 04:33:00,
2013-04-02 00:49:00,24.6,17.0,30.11,WNW,284,0.0,0.0,74,0.00,,,0.00,weatherlink.com 1.10,2013-04-02 04:49:00,
2013-04-02 01:04:00,23.9,17.0,30.11,SE,145,0.0,0.0,75,0.00,,,0.00,weatherlink.com 1.10,2013-04-02 05:04:00,
2013-04-02 01:19:00,24.7,18.0,30.11,SW,230,0.0,0.0,75,0.00,,,0.00,weatherlink.com 1.10,2013-04-02 05:19:00,
2013-04-02 01:34:00,25.3,19.0,30.11,SW,236,0.0,0.0,76,0.00,,,0.00,weatherlink.com 1.10,2013-04-02 05:34:00,
2013-04-02 01:49:00,26.3,20.0,30.12,NW,308,3.0,6.0,76,0.00,,,0.00,weatherlink.com 1.10,2013-04-02 05:49:00,
2013-04-02 02:04:00,26.7,19.0,30.12,NW,326,0.0,1.0,73,0.00,,,0.00,weatherlink.com 1.10,2013-04-02 06:04:00,
2013-04-02 02:19:00,26.5,20.0,30.12,WNW,302,0.0,1.0,77,0.00,,,0.00,weatherlink.com 1.10,2013-04-02 06:19:00,
2013-04-02 02:34:00,27.0,21.0,30.13,WNW,301,0.0,3.0,79,0.00,,,0.00,weatherlink.com 1.10,2013-04-02 06:34:00,
2013-04-02 02:49:00,27.1,21.0,30.13,WNW,303,1.0,2.0,79,0.00,,,0.00,weatherlink.com 1.10,2013-04-02 06:49:00,
2013-04-02 03:04:00,26.9,22.0,30.13,NW,304,0.0,1.0,81,0.00,,,0.00,weatherlink.com 1.10,2013-04-02 07:04:00,
2013-04-02 03:19:00,27.0,22.0,30.14,WNW,297,0.0,0.0,81,0.00,,,0.00,weatherlink.com 1.10,2013-04-02 07:19:00,
2013-04-02 03:34:00,26.9,21.0,30.14,WNW,290,1.0,2.0,79,0.00,,,0.00,weatherlink.com 1.10,2013-04-02 07:34:00,
2013-04-02 03:49:00,26.5,21.0,30.14,WNW,302,0.0,1.0,79,0.00,,,0.00,weatherlink.com 1.10,2013-04-02 07:49:00,
2013-04-02 04:04:00,26.0,20.0,30.14,WNW,302,0.0,0.0,79,0.00,,,0.00,weatherlink.com 1.10,2013-04-02 08:04:00,
2013-04-02 04:34:00,24.4,19.0,30.14,WNW,302,0.0,0.0,80,0.00,,,0.00,weatherlink.com 1.10,2013-04-02 08:34:00,
2013-04-02 04:49:00,23.6,18.0,30.14,WNW,302,0.0,0.0,80,0.00,,,0.00,weatherlink.com 1.10,2013-04-02 08:49:00,
2013-04-02 05:04:00,23.1,18.0,30.14,WNW,302,0.0,0.0,81,0.00,,,0.00,weatherlink.com 1.10,2013-04-02 09:04:00,
2013-04-02 05:19:00,22.8,18.0,30.15,WNW,302,0.0,0.0,81,0.00,,,0.00,weatherlink.com 1.10,2013-04-02 09:19:00,
2013-04-02 05:34:00,22.4,18.0,30.15,WNW,302,0.0,0.0,82,0.00,,,0.00,weatherlink.com 1.10,2013-04-02 09:34:00,
2013-04-02 05:49:00,22.2,18.0,30.15,WNW,302,0.0,0.0,82,0.00,,,0.00,weatherlink.com 1.10,2013-04-02 09:49:00,
2013-04-02 06:04:00,22.0,18.0,30.15,WNW,302,0.0,0.0,83,0.00,,,0.00,weatherlink.com 1.10,2013-04-02 10:04:00,
2013-04-02 06:19:00,22.0,18.0,30.15,SSE,154,0.0,0.0,83,0.00,,,0.00,weatherlink.com 1.10,2013-04-02 10:19:00,
2013-04-02 06:34:00,22.0,18.0,30.15,SE,132,0.0,0.0,84,0.00,,,0.00,weatherlink.com 1.10,2013-04-02 10:34:00,
2013-04-02 06:49:00,21.4,17.0,30.16,SE,132,0.0,0.0,84,0.00,,,0.00,weatherlink.com 1.10,2013-04-02 10:49:00,
2013-04-02 07:04:00,21.1,17.0,30.16,SE,133,0.0,0.0,84,0.00,,,0.00,weatherlink.com 1.10,2013-04-02 11:04:00,
2013-04-02 07:19:00,20.9,17.0,30.16,SE,132,0.0,0.0,85,0.00,,,0.00,weatherlink.com 1.10,2013-04-02 11:19:00,
2013-04-02 07:34:00,21.1,18.0,30.16,SE,132,0.0,0.0,86,0.00,,,0.00,weatherlink.com 1.10,2013-04-02 11:34:00,
2013-04-02 07:49:00,21.6,18.0,30.17,SE,132,0.0,0.0,87,0.00,,,0.00,weatherlink.com 1.10,2013-04-02 11:49:00,
2013-04-02 08:04:00,22.5,19.0,30.17,SW,226,0.0,0.0,85,0.00,,,0.00,weatherlink.com 1.10,2013-04-02 12:04:00,
2013-04-02 08:19:00,23.6,19.0,30.18,SW,232,0.0,0.0,83,0.00,,,0.00,weatherlink.com 1.10,2013-04-02 12:19:00,
2013-04-02 08:34:00,24.6,20.0,30.18,SW,225,0.0,0.0,81,0.00,,,0.00,weatherlink.com 1.10,2013-04-02 12:34:00,
2013-04-02 08:50:00,25.6,20.0,30.18,WSW,258,0.0,0.0,80,0.00,,,0.00,weatherlink.com 1.10,2013-04-02 12:50:00,
2013-04-02 09:05:00,27.1,20.0,30.18,SW,236,0.0,2.0,76,0.00,,,0.00,weatherlink.com 1.10,2013-04-02 13:05:00,
2013-04-02 09:20:00,28.7,20.0,30.19,WNW,283,2.0,3.0,71,0.00,,,0.00,weatherlink.com 1.10,2013-04-02 13:20:00,
2013-04-02 09:35:00,30.2,21.0,30.19,NW,316,3.0,5.0,69,0.00,,,0.00,weatherlink.com 1.10,2013-04-02 13:35:00,
2013-04-02 09:50:00,31.8,20.0,30.18,West,268,1.0,5.0,63,0.00,,,0.00,weatherlink.com 1.10,2013-04-02 13:50:00,
2013-04-02 10:05:00,32.6,21.0,30.19,NW,312,4.0,7.0,62,0.00,,,0.00,weatherlink.com 1.10,2013-04-02 14:05:00,
2013-04-02 10:35:00,32.8,18.0,30.19,NW,311,5.0,8.0,55,0.00,,,0.00,weatherlink.com 1.10,2013-04-02 14:35:00,
2013-04-02 10:50:00,33.9,18.0,30.19,NW,313,5.0,9.0,52,0.00,,,0.00,weatherlink.com 1.10,2013-04-02 14:50:00,
2013-04-02 11:05:00,34.0,18.0,30.19,WSW,245,2.0,10.0,53,0.00,,,0.00,weatherlink.com 1.10,2013-04-02 15:05:00,
2013-04-02 11:20:00,35.1,17.0,30.20,WNW,287,3.0,7.0,47,0.00,,,0.00,weatherlink.com 1.10,2013-04-02 15:20:00,
2013-04-02 11:35:00,35.3,16.0,30.19,WNW,288,3.0,10.0,46,0.00,,,0.00,weatherlink.com 1.10,2013-04-02 15:35:00,
2013-04-02 11:50:00,35.6,15.0,30.19,NW,322,5.0,12.0,43,0.00,,,0.00,weatherlink.com 1.10,2013-04-02 15:50:00,
2013-04-02 12:20:00,36.8,17.0,30.19,WSW,257,3.0,9.0,44,0.00,,,0.00,weatherlink.com 1.10,2013-04-02 16:20:00,
2013-04-02 12:50:00,36.8,16.0,30.19,West,280,3.0,8.0,43,0.00,,,0.00,weatherlink.com 1.10,2013-04-02 16:50:00,
2013-04-02 13:05:00,36.9,16.0,30.19,NW,321,4.0,10.0,43,0.00,,,0.00,weatherlink.com 1.10,2013-04-02 17:05:00,
2013-04-02 13:20:00,36.8,16.0,30.19,NW,315,6.0,10.0,43,0.00,,,0.00,weatherlink.com 1.10,2013-04-02 17:20:00,
2013-04-02 13:35:00,36.5,17.0,30.19,West,281,3.0,10.0,45,0.00,,,0.00,weatherlink.com 1.10,2013-04-02 17:35:00,
2013-04-02 13:50:00,37.5,16.0,30.18,WNW,290,4.0,8.0,41,0.00,,,0.00,weatherlink.com 1.10,2013-04-02 17:50:00,
2013-04-02 14:05:00,37.2,15.0,30.18,NW,307,6.0,10.0,41,0.00,,,0.00,weatherlink.com 1.10,2013-04-02 18:05:00,
2013-04-02 14:20:00,38.2,15.0,30.18,NW,307,7.0,10.0,39,0.00,,,0.00,weatherlink.com 1.10,2013-04-02 18:20:00,
2013-04-02 14:35:00,38.5,14.0,30.18,NW,316,3.0,12.0,37,0.00,,,0.00,weatherlink.com 1.10,2013-04-02 18:35:00,
2013-04-02 15:06:00,38.1,14.0,30.18,WSW,242,3.0,11.0,38,0.00,,,0.00,weatherlink.com 1.10,2013-04-02 19:06:00,
2013-04-02 15:21:00,37.8,15.0,30.18,NW,325,4.0,8.0,40,0.00,,,0.00,weatherlink.com 1.10,2013-04-02 19:21:00,
2013-04-02 15:51:00,37.4,15.0,30.18,NW,311,4.0,12.0,40,0.00,,,0.00,weatherlink.com 1.10,2013-04-02 19:51:00,
2013-04-02 16:06:00,37.5,16.0,30.17,WNW,290,4.0,12.0,41,0.00,,,0.00,weatherlink.com 1.10,2013-04-02 20:06:00,
2013-04-02 16:21:00,38.0,16.0,30.17,WNW,290,3.0,8.0,40,0.00,,,0.00,weatherlink.com 1.10,2013-04-02 20:21:00,
2013-04-02 16:36:00,38.6,16.0,30.17,NW,317,6.0,11.0,40,0.00,,,0.00,weatherlink.com 1.10,2013-04-02 20:36:00,
2013-04-02 16:51:00,37.6,15.0,30.18,WNW,298,2.0,12.0,39,0.00,,,0.00,weatherlink.com 1.10,2013-04-02 20:51:00,
2013-04-02 18:06:00,36.5,15.0,30.20,NW,308,6.0,9.0,42,0.00,,,0.00,weatherlink.com 1.10,2013-04-02 22:06:00,
2013-04-02 18:21:00,36.3,16.0,30.20,West,262,1.0,9.0,44,0.00,,,0.00,weatherlink.com 1.10,2013-04-02 22:21:00,
2013-04-02 19:06:00,35.6,14.0,30.22,WNW,294,2.0,6.0,42,0.00,,,0.00,weatherlink.com 1.10,2013-04-02 23:06:00,
2013-04-02 19:36:00,34.3,14.0,30.22,NW,311,6.0,7.0,44,0.00,,,0.00,weatherlink.com 1.10,2013-04-02 23:36:00,
2013-04-02 19:51:00,34.1,15.0,30.22,NW,307,6.0,7.0,45,0.00,,,0.00,weatherlink.com 1.10,2013-04-02 23:51:00,
2013-04-02 20:21:00,32.9,15.0,30.23,WSW,248,1.0,6.0,48,0.00,,,0.00,weatherlink.com 1.10,2013-04-03 00:21:00,
2013-04-02 20:36:00,32.7,15.0,30.23,WNW,293,1.0,4.0,48,0.00,,,0.00,weatherlink.com 1.10,2013-04-03 00:36:00,
2013-04-02 20:51:00,32.1,16.0,30.24,NW,316,1.0,4.0,51,0.00,,,0.00,weatherlink.com 1.10,2013-04-03 00:51:00,
2013-04-02 21:06:00,31.4,15.0,30.25,WNW,300,0.0,2.0,52,0.00,,,0.00,weatherlink.com 1.10,2013-04-03 01:06:00,
2013-04-02 21:21:00,30.7,15.0,30.25,WNW,300,0.0,1.0,53,0.00,,,0.00,weatherlink.com 1.10,2013-04-03 01:21:00,
2013-04-02 22:06:00,28.3,15.0,30.27,WNW,302,0.0,1.0,57,0.00,,,0.00,weatherlink.com 1.10,2013-04-03 02:06:00,
2013-04-02 22:21:00,28.2,15.0,30.27,WNW,301,0.0,1.0,58,0.00,,,0.00,weatherlink.com 1.10,2013-04-03 02:21:00,
2013-04-02 22:36:00,28.1,15.0,30.27,WNW,301,0.0,0.0,58,0.00,,,0.00,weatherlink.com 1.10,2013-04-03 02:36:00,
2013-04-02 22:51:00,28.1,15.0,30.27,WNW,301,0.0,0.0,58,0.00,,,0.00,weatherlink.com 1.10,2013-04-03 02:51:00,
2013-04-02 23:06:00,27.8,15.0,30.27,WNW,301,0.0,0.0,59,0.00,,,0.00,weatherlink.com 1.10,2013-04-03 03:06:00,
2013-04-02 23:36:00,27.3,16.0,30.27,WNW,300,0.0,0.0,62,0.00,,,0.00,weatherlink.com 1.10,2013-04-03 03:36:00,